Time;durP1;ratioP1;P1;durP2;ratioP2;P2;SDS_P1;SDS_P2;PMS_P1;PMS_P2;Temp;Humidity;BMP_temperature;BMP_pressure;BME280_temperature;BME280_humidity;BME280_pressure;Samples;Min_cycle;Max_cycle;Signal;HPM_P1;HPM_P2
2022/11/22 00:00:40;;;;;;;14.57;13.63;;;5.70;99.90;;;;;;5070874;28;20186;-79
2022/11/22 00:03:07;;;;;;;18.07;16.87;;;5.70;99.90;;;;;;5062266;28;20684;-76
2022/11/22 00:05:33;;;;;;;26.20;24.73;;;5.70;99.90;;;;;;5075507;28;20235;-78
2022/11/22 00:07:58;;;;;;;27.00;25.33;;;5.70;99.90;;;;;;5075555;28;20721;-79
2022/11/22 00:10:24;;;;;;;19.30;18.07;;;5.70;99.90;;;;;;5065619;28;20265;-79
2022/11/22 00:12:50;;;;;;;20.47;18.77;;;5.70;99.90;;;;;;5056322;28;20189;-79
2022/11/22 00:15:16;;;;;;;19.37;18.03;;;5.70;99.90;;;;;;5053471;28;20206;-77
2022/11/22 00:17:41;;;;;;;25.73;24.07;;;5.70;99.90;;;;;;5044734;28;20183;-77
2022/11/22 00:20:09;;;;;;;22.37;21.00;;;5.80;99.90;;;;;;5054727;28;20187;-77
2022/11/22 00:22:35;;;;;;;21.17;19.93;;;5.70;99.90;;;;;;5051942;28;20190;-78
2022/11/22 00:25:01;;;;;;;21.37;19.83;;;5.80;99.90;;;;;;5052828;28;20301;-78
2022/11/22 00:27:26;;;;;;;19.17;17.90;;;5.80;99.90;;;;;;5051172;28;20205;-78
2022/11/22 00:29:52;;;;;;;20.40;19.17;;;5.80;99.90;;;;;;5051948;28;20220;-78
2022/11/22 00:32:18;;;;;;;18.70;17.60;;;5.80;99.90;;;;;;5051111;28;20197;-78
2022/11/22 00:34:44;;;;;;;19.73;18.47;;;5.80;99.90;;;;;;5056632;28;20259;-79
2022/11/22 00:37:09;;;;;;;13.00;12.17;;;5.80;99.90;;;;;;5072288;28;20586;-77
2022/11/22 00:39:35;;;;;;;9.27;8.67;;;5.80;99.90;;;;;;5071545;28;20653;-79
2022/11/22 00:42:01;;;;;;;7.50;6.77;;;5.90;99.90;;;;;;5054986;28;20185;-78
2022/11/22 00:44:27;;;;;;;6.97;6.47;;;5.90;99.90;;;;;;5058224;28;20214;-77
2022/11/22 00:46:53;;;;;;;6.97;6.37;;;5.80;99.90;;;;;;5053933;28;20206;-77
2022/11/22 00:49:18;;;;;;;6.60;6.10;;;5.80;99.90;;;;;;5060627;28;20192;-76
2022/11/22 00:51:44;;;;;;;6.60;6.10;;;5.80;99.90;;;;;;5077764;28;20184;-77
2022/11/22 00:54:10;;;;;;;7.00;6.50;;;5.80;99.90;;;;;;5075316;28;20654;-77
2022/11/22 00:56:36;;;;;;;7.03;6.50;;;5.80;99.90;;;;;;5077370;28;20193;-76
2022/11/22 00:59:02;;;;;;;7.80;7.20;;;5.80;99.90;;;;;;5077135;28;20604;-77
2022/11/22 01:01:28;;;;;;;9.60;8.77;;;5.80;99.90;;;;;;5059393;28;20178;-77
2022/11/22 01:03:53;;;;;;;8.80;8.30;;;5.90;99.90;;;;;;5056121;28;20182;-77
2022/11/22 01:06:19;;;;;;;9.00;8.40;;;5.80;99.90;;;;;;5058425;28;20206;-77
2022/11/22 01:08:45;;;;;;;8.00;7.30;;;5.90;99.90;;;;;;5056665;28;20182;-77
2022/11/22 01:11:12;;;;;;;8.13;7.23;;;5.90;99.90;;;;;;5055885;28;20683;-77
2022/11/22 01:13:38;;;;;;;7.70;6.93;;;5.90;99.90;;;;;;5055882;28;20246;-78
2022/11/22 01:16:07;;;;;;;8.30;7.70;;;5.90;99.90;;;;;;5059426;28;20279;-77
2022/11/22 01:18:33;;;;;;;8.57;7.60;;;5.80;99.90;;;;;;5059209;28;20583;-78
2022/11/22 01:21:00;;;;;;;8.33;7.53;;;5.90;99.90;;;;;;5069185;28;20189;-78
2022/11/22 01:23:26;;;;;;;9.87;8.90;;;5.90;99.90;;;;;;5080139;28;20198;-78
2022/11/22 01:25:52;;;;;;;12.33;11.27;;;5.90;99.90;;;;;;5078693;28;20280;-78
2022/11/22 01:28:18;;;;;;;10.13;9.33;;;5.80;99.90;;;;;;5079105;28;20181;-78
2022/11/22 01:30:44;;;;;;;12.73;11.73;;;5.80;99.90;;;;;;5070984;28;20174;-78
2022/11/22 01:33:10;;;;;;;9.10;8.40;;;5.80;99.90;;;;;;5073115;28;20185;-77
2022/11/22 01:35:36;;;;;;;8.10;7.53;;;5.80;99.90;;;;;;5077866;28;20225;-78
2022/11/22 01:38:02;;;;;;;7.07;6.57;;;5.80;99.90;;;;;;5077443;28;20203;-77
2022/11/22 01:40:28;;;;;;;8.37;7.50;;;5.80;99.90;;;;;;5077150;28;20252;-77
2022/11/22 01:42:57;;;;;;;10.30;6.83;;;5.80;99.90;;;;;;5076960;28;20253;-78
2022/11/22 01:45:29;;;;;;;7.47;6.90;;;5.90;99.90;;;;;;5077196;28;20225;-78
2022/11/22 01:48:12;;;;;;;9.20;6.77;;;5.90;99.90;;;;;;5076449;28;20189;-77
2022/11/22 01:50:41;;;;;;;8.03;7.47;;;5.90;99.90;;;;;;5071547;28;20232;-77
2022/11/22 01:53:16;;;;;;;9.57;7.63;;;5.90;99.90;;;;;;5055900;28;20186;-77
2022/11/22 01:55:43;;;;;;;6.97;6.43;;;5.90;99.90;;;;;;5075726;28;20258;-79
2022/11/22 01:58:11;;;;;;;6.77;6.17;;;5.90;99.90;;;;;;5085239;28;20189;-77
2022/11/22 02:00:37;;;;;;;6.60;6.10;;;5.90;99.90;;;;;;5087911;28;20181;-78
2022/11/22 02:03:06;;;;;;;6.83;6.10;;;6.00;99.90;;;;;;5067947;28;20182;-78
2022/11/22 02:05:34;;;;;;;7.47;6.50;;;5.90;99.90;;;;;;5063374;28;20249;-77
2022/11/22 02:08:06;;;;;;;6.37;5.97;;;5.90;99.90;;;;;;5062409;28;20326;-78
2022/11/22 02:10:37;;;;;;;6.43;5.93;;;5.90;99.90;;;;;;5060668;28;20243;-77
2022/11/22 02:13:05;;;;;;;7.00;6.30;;;5.90;99.90;;;;;;5081266;28;20554;-78
2022/11/22 02:15:31;;;;;;;6.20;5.80;;;5.90;99.90;;;;;;5078430;28;20228;-77
2022/11/22 02:17:57;;;;;;;6.90;5.70;;;6.00;99.90;;;;;;5074920;28;20185;-77
2022/11/22 02:20:23;;;;;;;7.47;5.63;;;6.00;99.90;;;;;;5076992;28;20715;-78
2022/11/22 02:22:59;;;;;;;7.40;6.23;;;6.00;99.90;;;;;;5056180;28;20276;-77
2022/11/22 02:25:29;;;;;;;7.37;6.13;;;5.90;99.90;;;;;;5055971;28;20221;-76
2022/11/22 02:27:54;;;;;;;6.43;5.83;;;6.00;99.90;;;;;;5056977;28;20590;-77
2022/11/22 02:30:21;;;;;;;7.83;5.37;;;6.00;99.90;;;;;;5056166;28;20200;-78
2022/11/22 02:32:47;;;;;;;6.93;6.10;;;6.00;99.90;;;;;;5088226;28;20170;-78
2022/11/22 02:35:22;;;;;;;6.40;5.47;;;6.00;99.90;;;;;;5058999;28;20259;-78
2022/11/22 02:37:52;;;;;;;6.77;6.13;;;6.00;99.90;;;;;;5062553;28;20189;-78
2022/11/22 02:40:20;;;;;;;6.60;6.00;;;6.00;99.90;;;;;;5058286;28;20182;-78
2022/11/22 02:42:57;;;;;;;8.57;7.60;;;6.00;99.90;;;;;;5075646;28;20715;-78
2022/11/22 02:45:23;;;;;;;7.47;6.97;;;6.10;99.90;;;;;;5073907;28;20305;-78
2022/11/22 02:47:49;;;;;;;6.73;6.13;;;6.10;99.90;;;;;;5072251;28;20213;-77
2022/11/22 02:50:14;;;;;;;12.27;11.33;;;6.10;99.90;;;;;;5072438;28;20277;-77
2022/11/22 02:52:40;;;;;;;15.07;14.33;;;6.10;99.90;;;;;;5072094;28;20607;-77
2022/11/22 02:55:06;;;;;;;10.00;9.13;;;6.10;99.90;;;;;;5071475;28;20685;-78
2022/11/22 02:57:32;;;;;;;7.93;7.37;;;6.10;99.90;;;;;;5072067;28;20692;-77
2022/11/22 02:59:58;;;;;;;7.77;7.23;;;6.10;99.90;;;;;;5072092;28;20185;-78
2022/11/22 03:02:24;;;;;;;7.47;6.87;;;6.10;99.90;;;;;;5056986;28;20647;-77
2022/11/22 03:04:49;;;;;;;6.53;6.23;;;6.20;99.90;;;;;;5051547;28;20206;-77
2022/11/22 03:07:16;;;;;;;11.60;10.83;;;6.20;99.90;;;;;;5051342;28;20174;-78
2022/11/22 03:09:42;;;;;;;7.30;6.57;;;6.30;99.90;;;;;;5056703;28;20186;-78
2022/11/22 03:12:07;;;;;;;6.40;5.70;;;6.30;99.90;;;;;;5072255;28;20181;-78
2022/11/22 03:14:33;;;;;;;8.47;6.50;;;6.20;99.90;;;;;;5075160;28;20212;-77
2022/11/22 03:17:08;;;;;;;8.07;6.60;;;6.20;99.90;;;;;;5078157;28;20268;-77
2022/11/22 03:19:34;;;;;;;8.03;7.23;;;6.10;99.90;;;;;;5073325;28;20196;-79
2022/11/22 03:22:00;;;;;;;7.33;6.73;;;6.00;99.90;;;;;;5074021;28;20209;-78
2022/11/22 03:24:25;;;;;;;10.43;9.63;;;5.90;99.90;;;;;;5078060;28;20814;-79
2022/11/22 03:26:51;;;;;;;14.43;13.33;;;5.80;99.90;;;;;;5075208;28;20617;-79
2022/11/22 03:29:17;;;;;;;17.27;15.87;;;5.70;99.90;;;;;;5073274;28;20193;-80
2022/11/22 03:31:43;;;;;;;13.77;12.70;;;5.60;99.90;;;;;;5059931;28;20174;-79
2022/11/22 03:34:11;;;;;;;9.63;8.73;;;5.60;99.90;;;;;;5054220;28;20190;-79
2022/11/22 03:36:36;;;;;;;8.27;7.60;;;5.60;99.90;;;;;;5052729;28;20174;-78
2022/11/22 03:39:02;;;;;;;7.40;6.80;;;5.50;99.90;;;;;;5053751;28;20189;-78
2022/11/22 03:41:28;;;;;;;8.20;7.50;;;5.40;99.90;;;;;;5053294;28;20677;-78
2022/11/22 03:43:54;;;;;;;8.40;7.80;;;5.40;99.90;;;;;;5069708;28;20327;-79
2022/11/22 03:46:20;;;;;;;9.50;8.63;;;5.40;99.90;;;;;;5068359;28;20206;-79
2022/11/22 03:48:46;;;;;;;9.00;8.30;;;5.30;99.90;;;;;;5055867;28;20217;-79
2022/11/22 03:51:12;;;;;;;9.57;8.87;;;5.30;99.90;;;;;;5052062;28;20560;-78
2022/11/22 03:53:38;;;;;;;9.97;9.17;;;5.30;99.90;;;;;;5056717;28;20183;-78
2022/11/22 03:56:05;;;;;;;7.87;7.27;;;5.30;99.90;;;;;;5055110;28;20209;-79
2022/11/22 03:58:31;;;;;;;8.40;7.53;;;5.30;99.90;;;;;;5054133;28;20191;-79
2022/11/22 04:00:56;;;;;;;9.33;8.67;;;5.20;99.90;;;;;;5080413;28;20561;-78
2022/11/22 04:03:23;;;;;;;10.40;9.40;;;5.30;99.90;;;;;;5080001;28;20220;-78
2022/11/22 04:05:48;;;;;;;8.43;7.87;;;5.30;99.90;;;;;;5074050;28;20229;-79
2022/11/22 04:08:14;;;;;;;20.90;19.43;;;5.30;99.90;;;;;;5077341;28;20555;-79
2022/11/22 04:10:40;;;;;;;26.70;25.33;;;5.40;99.90;;;;;;5074786;28;20212;-80
2022/11/22 04:13:06;;;;;;;23.20;21.77;;;5.50;99.90;;;;;;5073177;28;20593;-79
2022/11/22 04:15:32;;;;;;;30.50;28.67;;;5.50;99.90;;;;;;5053113;28;20217;-79
2022/11/22 04:17:58;;;;;;;46.13;43.43;;;5.60;99.90;;;;;;5051245;28;20596;-78
2022/11/22 04:23:18;;;;;;;22.53;21.07;;;5.60;99.90;;;;;;5056771;28;20281;-80
2022/11/22 04:25:50;;;;;;;28.67;26.90;;;5.60;99.90;;;;;;5055783;28;20205;-80
2022/11/22 04:28:21;;;;;;;28.50;26.77;;;5.60;99.90;;;;;;5059380;28;20182;-79
2022/11/22 04:33:32;;;;;;;45.43;43.00;;;5.50;99.90;;;;;;5067331;28;20189;-77
2022/11/22 04:35:58;;;;;;;49.73;46.90;;;5.40;99.90;;;;;;5067314;28;20317;-77
2022/11/22 04:38:25;;;;;;;43.30;40.97;;;5.40;99.90;;;;;;5059945;28;20208;-79
2022/11/22 04:40:51;;;;;;;23.20;21.70;;;5.30;99.90;;;;;;5058185;28;20186;-78
2022/11/22 04:46:04;;;;;;;62.77;59.47;;;5.20;99.90;;;;;;5059315;28;20210;-80
2022/11/22 04:48:29;;;;;;;48.80;45.63;;;5.10;99.90;;;;;;5057653;28;20166;-79
2022/11/22 04:53:39;;;;;;;8.20;7.50;;;5.00;99.90;;;;;;5057342;28;20186;-78
2022/11/22 04:56:06;;;;;;;8.70;7.90;;;5.00;99.90;;;;;;5058996;28;20241;-78
2022/11/22 04:58:32;;;;;;;20.17;19.00;;;4.90;99.90;;;;;;5062399;28;20239;-78
2022/11/22 05:00:58;;;;;;;27.10;25.30;;;4.80;99.90;;;;;;5081399;28;20548;-79
2022/11/22 05:03:24;;;;;;;18.73;17.63;;;4.80;99.90;;;;;;5080823;28;20196;-80
2022/11/22 05:05:50;;;;;;;26.00;24.53;;;4.80;99.90;;;;;;5081497;28;20201;-79
2022/11/22 05:08:16;;;;;;;20.50;19.00;;;4.70;99.90;;;;;;5080695;28;20225;-77
2022/11/22 05:10:57;;;;;;;31.60;29.47;;;4.60;99.90;;;;;;5079542;28;20185;-79
2022/11/22 05:13:37;;;;;;;21.17;19.97;;;4.60;99.90;;;;;;5061092;28;20182;-79
2022/11/22 05:16:04;;;;;;;20.50;19.07;;;4.50;99.90;;;;;;5060473;28;20300;-79
2022/11/22 05:18:31;;;;;;;15.60;14.57;;;4.40;99.90;;;;;;5061177;28;20192;-79
2022/11/22 05:20:59;;;;;;;20.27;19.13;;;4.40;99.90;;;;;;5060093;28;20213;-79
2022/11/22 05:26:10;;;;;;;11.87;10.97;;;4.30;99.90;;;;;;5060874;28;20275;-78
2022/11/22 05:28:37;;;;;;;13.67;12.40;;;4.20;99.90;;;;;;5061252;28;20174;-78
2022/11/22 05:31:08;;;;;;;19.67;18.30;;;4.20;99.90;;;;;;5060050;28;20315;-79
2022/11/22 05:33:39;;;;;;;15.47;14.57;;;4.20;99.90;;;;;;5067487;28;20209;-77
2022/11/22 05:36:06;;;;;;;21.17;19.50;;;4.10;99.90;;;;;;5068728;28;20304;-79
2022/11/22 05:38:34;;;;;;;23.17;21.77;;;4.10;99.90;;;;;;5066265;28;20190;-76
2022/11/22 05:41:02;;;;;;;18.77;17.43;;;4.00;99.90;;;;;;5062632;28;20201;-76
2022/11/22 05:43:27;;;;;;;38.53;35.80;;;3.90;99.90;;;;;;5060278;28;20542;-77
2022/11/22 05:45:53;;;;;;;36.70;33.77;;;4.00;99.90;;;;;;5061334;28;20214;-77
2022/11/22 05:48:19;;;;;;;27.53;25.43;;;4.00;99.90;;;;;;5080036;28;20191;-77
2022/11/22 05:50:45;;;;;;;20.37;19.03;;;4.00;99.90;;;;;;5087816;28;20193;-78
2022/11/22 05:53:11;;;;;;;29.33;27.27;;;4.00;99.90;;;;;;5083020;28;20614;-79
2022/11/22 05:58:03;;;;;;;40.67;38.17;;;3.90;99.90;;;;;;5114284;22;20239;-76
2022/11/22 06:00:29;;;;;;;39.07;36.70;;;3.90;99.90;;;;;;5112114;28;20184;-75
2022/11/22 06:03:02;;;;;;;43.10;40.13;;;3.90;99.90;;;;;;5092164;28;20192;-76
2022/11/22 06:05:28;;;;;;;41.53;38.13;;;3.90;99.90;;;;;;5093109;28;20243;-76
2022/11/22 06:08:01;;;;;;;43.00;39.97;;;3.80;99.90;;;;;;5092387;28;20192;-76
2022/11/22 06:10:27;;;;;;;36.87;31.10;;;3.80;99.90;;;;;;5091481;28;20177;-76
2022/11/22 06:12:54;;;;;;;20.50;18.13;;;3.80;99.90;;;;;;5097653;28;20200;-75
2022/11/22 06:15:20;;;;;;;11.33;10.27;;;3.90;99.90;;;;;;5096510;28;20196;-75
2022/11/22 06:17:46;;;;;;;15.53;11.07;;;3.90;99.90;;;;;;5091723;28;20209;-76
2022/11/22 06:20:12;;;;;;;16.13;10.80;;;3.90;99.90;;;;;;5092559;28;20271;-76
2022/11/22 06:22:38;;;;;;;16.70;10.37;;;3.90;99.90;;;;;;5091415;28;20263;-76
2022/11/22 06:25:04;;;;;;;19.80;10.93;;;3.80;99.90;;;;;;5092404;28;20265;-75
2022/11/22 06:27:30;;;;;;;14.80;11.03;;;3.80;99.90;;;;;;5091251;28;20210;-76
2022/11/22 06:29:56;;;;;;;18.10;11.57;;;3.80;99.90;;;;;;5091645;28;20267;-78
2022/11/22 06:32:21;;;;;;;12.43;9.80;;;3.80;99.90;;;;;;5092796;28;20180;-69
2022/11/22 06:34:47;;;;;;;13.53;12.30;;;3.80;99.90;;;;;;5092037;28;20269;-68
2022/11/22 06:37:16;;;;;;;19.00;17.30;;;3.90;99.90;;;;;;5091753;28;20283;-69
2022/11/22 06:39:41;;;;;;;19.73;17.43;;;4.10;99.90;;;;;;5092985;28;20191;-69
2022/11/22 06:42:07;;;;;;;20.27;18.40;;;4.20;99.90;;;;;;5092678;28;20259;-69
2022/11/22 06:44:33;;;;;;;17.17;15.67;;;4.20;99.90;;;;;;5091501;28;20209;-70
2022/11/22 06:46:59;;;;;;;21.50;17.37;;;4.20;99.90;;;;;;5089723;28;20235;-68
2022/11/22 06:49:24;;;;;;;16.13;14.53;;;4.20;99.90;;;;;;5091868;28;20191;-68
2022/11/22 06:51:50;;;;;;;21.00;14.90;;;4.20;99.90;;;;;;5090561;28;20513;-69
2022/11/22 06:54:16;;;;;;;21.73;20.03;;;4.30;99.90;;;;;;5091667;28;20188;-68
2022/11/22 06:56:42;;;;;;;22.33;20.50;;;4.30;99.90;;;;;;5091777;28;20243;-68
2022/11/22 06:59:08;;;;;;;15.30;13.70;;;4.30;99.90;;;;;;5091403;28;20195;-68
2022/11/22 07:01:35;;;;;;;30.10;27.47;;;4.30;99.90;;;;;;5091845;28;20695;-75
2022/11/22 07:04:02;;;;;;;15.20;11.93;;;4.30;99.90;;;;;;5091840;28;20188;-75
2022/11/22 07:06:31;;;;;;;15.53;11.87;;;4.30;99.90;;;;;;5089926;28;20585;-75
2022/11/22 07:08:59;;;;;;;13.23;9.50;;;4.30;99.90;;;;;;5091155;28;20184;-75
2022/11/22 07:11:27;;;;;;;12.17;10.87;;;4.30;99.90;;;;;;5091567;28;20175;-75
2022/11/22 07:13:55;;;;;;;9.77;9.00;;;4.30;99.90;;;;;;5090177;28;20184;-75
2022/11/22 07:16:21;;;;;;;10.53;9.37;;;4.30;99.90;;;;;;5090140;28;20286;-76
2022/11/22 07:18:48;;;;;;;9.23;8.47;;;4.30;99.90;;;;;;5089829;28;20720;-75
2022/11/22 07:21:20;;;;;;;10.63;9.47;;;4.30;99.90;;;;;;5089830;28;20181;-75
2022/11/22 07:23:49;;;;;;;10.23;9.07;;;4.30;99.90;;;;;;5091438;28;20590;-76
2022/11/22 07:26:16;;;;;;;8.97;8.20;;;4.30;99.90;;;;;;5089971;28;20219;-75
2022/11/22 07:28:43;;;;;;;13.80;12.50;;;4.30;99.90;;;;;;5090775;28;20793;-76
2022/11/22 07:31:11;;;;;;;13.87;12.57;;;4.30;99.90;;;;;;5091224;28;20180;-75
2022/11/22 07:33:37;;;;;;;14.73;13.63;;;4.30;99.90;;;;;;5091277;28;20824;-75
2022/11/22 07:36:17;;;;;;;13.30;12.17;;;4.30;99.90;;;;;;5089593;28;20208;-76
2022/11/22 07:38:44;;;;;;;16.93;10.00;;;4.40;99.90;;;;;;5090971;28;20182;-76
2022/11/22 07:41:10;;;;;;;10.20;9.00;;;4.50;99.90;;;;;;5091475;28;20192;-76
2022/11/22 07:43:36;;;;;;;11.97;10.50;;;4.50;99.90;;;;;;5090204;28;20176;-76
2022/11/22 07:46:04;;;;;;;12.23;10.97;;;4.50;99.90;;;;;;5105639;28;20196;-75
2022/11/22 07:48:30;;;;;;;12.83;10.90;;;4.50;99.90;;;;;;5099666;28;20356;-76
2022/11/22 07:50:56;;;;;;;11.73;10.57;;;4.60;99.90;;;;;;5090900;28;20298;-76
2022/11/22 07:53:21;;;;;;;16.90;13.57;;;4.60;99.90;;;;;;5090133;28;20260;-76
2022/11/22 07:55:47;;;;;;;17.47;12.83;;;4.60;99.90;;;;;;5091608;28;20179;-75
2022/11/22 07:58:13;;;;;;;16.57;14.90;;;4.70;99.90;;;;;;5090549;28;20268;-76
2022/11/22 08:00:39;;;;;;;21.77;15.73;;;4.70;99.90;;;;;;5090714;28;20280;-74
2022/11/22 08:03:07;;;;;;;18.33;16.47;;;4.70;99.90;;;;;;5090889;28;20180;-76
2022/11/22 08:05:33;;;;;;;19.30;15.53;;;4.80;99.90;;;;;;5089284;28;20291;-76
2022/11/22 08:07:58;;;;;;;19.97;17.10;;;4.80;99.90;;;;;;5089106;28;20281;-76
2022/11/22 08:10:24;;;;;;;23.73;21.67;;;4.90;99.90;;;;;;5090998;28;20530;-76
2022/11/22 08:12:50;;;;;;;26.63;24.37;;;5.00;99.90;;;;;;5090630;28;20279;-76
2022/11/22 08:15:16;;;;;;;23.40;21.53;;;5.00;99.90;;;;;;5091212;28;20275;-76
2022/11/22 08:17:42;;;;;;;21.10;18.90;;;5.10;99.90;;;;;;5088971;28;20291;-76
2022/11/22 08:20:08;;;;;;;22.93;20.17;;;5.10;99.90;;;;;;5089512;28;20270;-75
2022/11/22 08:22:39;;;;;;;23.83;18.57;;;5.20;99.90;;;;;;5090915;28;20177;-75
2022/11/22 08:25:11;;;;;;;20.03;17.80;;;5.20;99.90;;;;;;5090737;28;20214;-76
2022/11/22 08:27:41;;;;;;;16.97;14.63;;;5.30;99.90;;;;;;5090115;28;20278;-76
2022/11/22 08:30:09;;;;;;;16.00;14.40;;;5.40;99.90;;;;;;5089590;28;20219;-76
2022/11/22 08:32:34;;;;;;;15.43;14.07;;;5.40;99.90;;;;;;5089639;28;20207;-75
2022/11/22 08:35:00;;;;;;;15.47;13.40;;;5.50;99.90;;;;;;5089395;28;20181;-76
2022/11/22 08:37:26;;;;;;;21.10;12.30;;;5.60;99.90;;;;;;5090277;28;20261;-76
2022/11/22 08:39:52;;;;;;;26.97;24.87;;;5.60;99.90;;;;;;5090714;28;20173;-77
2022/11/22 08:42:18;;;;;;;42.27;38.87;;;5.70;99.90;;;;;;5090373;28;20293;-77
2022/11/22 08:44:43;;;;;;;43.50;40.30;;;5.70;99.90;;;;;;5090546;28;20554;-77
2022/11/22 08:47:09;;;;;;;28.10;26.10;;;5.80;99.90;;;;;;5090113;28;20216;-77
2022/11/22 08:49:35;;;;;;;13.73;11.30;;;5.90;99.90;;;;;;5090304;28;20295;-76
2022/11/22 08:52:01;;;;;;;14.40;12.73;;;5.90;99.90;;;;;;5089359;28;20230;-76
2022/11/22 08:54:27;;;;;;;12.13;10.63;;;5.90;99.90;;;;;;5089416;28;20173;-77
2022/11/22 08:56:53;;;;;;;14.63;10.67;;;6.00;99.90;;;;;;5089644;28;20304;-77
2022/11/22 08:59:18;;;;;;;32.57;30.30;;;6.00;99.90;;;;;;5089677;28;20181;-76
2022/11/22 09:01:44;;;;;;;38.17;35.60;;;6.10;99.90;;;;;;5090510;28;20177;-77
2022/11/22 09:04:10;;;;;;;21.87;20.17;;;6.10;99.90;;;;;;5090342;28;20196;-77
2022/11/22 09:06:37;;;;;;;13.63;11.13;;;6.10;99.90;;;;;;5090273;28;20212;-77
2022/11/22 09:09:03;;;;;;;19.20;17.47;;;6.20;99.90;;;;;;5096244;28;20260;-77
2022/11/22 09:11:29;;;;;;;28.43;26.00;;;6.30;99.90;;;;;;5092777;28;20176;-75
2022/11/22 09:13:55;;;;;;;28.33;25.90;;;6.40;99.90;;;;;;5094198;28;20204;-77
2022/11/22 09:16:20;;;;;;;31.77;29.57;;;6.40;99.90;;;;;;5097342;28;20204;-76
2022/11/22 09:18:47;;;;;;;32.90;30.47;;;6.50;99.90;;;;;;5097599;28;20604;-76
2022/11/22 09:21:16;;;;;;;34.77;32.33;;;6.40;99.90;;;;;;5095967;28;20268;-77
2022/11/22 09:23:44;;;;;;;32.00;29.87;;;6.50;99.90;;;;;;5093755;28;20279;-77
2022/11/22 09:26:13;;;;;;;34.40;31.90;;;6.50;99.90;;;;;;5092147;28;20655;-77
2022/11/22 09:28:39;;;;;;;26.03;24.23;;;6.50;99.90;;;;;;5108684;28;20255;-75
2022/11/22 09:31:08;;;;;;;32.10;29.80;;;6.50;99.90;;;;;;5108366;28;20189;-77
2022/11/22 09:33:37;;;;;;;26.80;24.80;;;6.60;99.90;;;;;;5097328;28;20181;-76
2022/11/22 09:36:14;;;;;;;32.37;29.80;;;6.60;99.90;;;;;;5092260;28;20197;-77
2022/11/22 09:38:40;;;;;;;26.50;24.40;;;6.60;99.90;;;;;;5093271;28;20530;-77
2022/11/22 09:41:15;;;;;;;30.03;27.73;;;6.60;99.90;;;;;;5093580;28;20268;-77
2022/11/22 09:43:59;;;;;;;30.93;28.23;;;6.60;99.90;;;;;;5093583;28;20234;-77
2022/11/22 09:46:57;;;;;;;32.77;30.50;;;6.60;99.90;;;;;;5092069;28;20219;-77
2022/11/22 09:50:00;;;;;;;24.43;22.20;;;6.80;99.90;;;;;;5066129;28;20204;-77
2022/11/22 09:52:37;;;;;;;31.23;28.07;;;6.90;99.90;;;;;;5072097;28;20181;-77
2022/11/22 09:55:26;;;;;;;28.83;26.57;;;7.00;99.90;;;;;;5071696;28;20184;-77
2022/11/22 09:58:09;;;;;;;23.63;21.50;;;7.00;99.90;;;;;;5070340;28;20229;-77
2022/11/22 10:00:35;;;;;;;21.03;19.23;;;7.10;99.90;;;;;;5072164;28;20265;-77
2022/11/22 10:03:35;;;;;;;20.10;18.40;;;7.10;99.90;;;;;;5072812;28;20265;-77
2022/11/22 10:06:07;;;;;;;17.63;16.13;;;7.00;99.90;;;;;;5072708;28;20224;-77
2022/11/22 10:08:39;;;;;;;17.00;15.63;;;7.00;99.90;;;;;;5071070;28;20273;-77
2022/11/22 10:11:29;;;;;;;17.00;15.47;;;7.00;99.90;;;;;;5071216;28;20186;-77
2022/11/22 10:14:00;;;;;;;26.37;24.00;;;7.10;99.90;;;;;;5072572;28;20196;-77
2022/11/22 10:16:51;;;;;;;15.27;13.60;;;7.20;99.90;;;;;;5072662;28;20241;-76
2022/11/22 10:19:38;;;;;;;23.10;21.30;;;7.30;99.90;;;;;;5070693;28;20209;-77
2022/11/22 10:22:12;;;;;;;16.93;15.67;;;7.50;99.90;;;;;;5072605;28;20707;-75
2022/11/22 10:24:38;;;;;;;11.17;10.07;;;7.60;99.90;;;;;;5071128;28;20606;-76
2022/11/22 10:27:10;;;;;;;11.07;8.63;;;7.70;99.90;;;;;;5075542;28;20213;-75
2022/11/22 10:29:52;;;;;;;8.77;8.07;;;7.80;99.90;;;;;;5091471;28;20188;-75
2022/11/22 10:32:37;;;;;;;12.83;11.77;;;7.90;99.90;;;;;;5091678;28;20522;-75
2022/11/22 10:35:41;;;;;;;17.27;15.83;;;8.00;99.90;;;;;;5091018;28;20177;-75
2022/11/22 10:38:25;;;;;;;14.13;12.80;;;8.10;99.90;;;;;;5091638;28;20732;-76
2022/11/22 10:40:57;;;;;;;10.97;8.93;;;8.20;99.90;;;;;;5092004;28;20185;-76
2022/11/22 10:43:37;;;;;;;9.10;7.33;;;8.30;99.90;;;;;;5090451;28;20183;-75
2022/11/22 10:46:16;;;;;;;15.47;14.33;;;8.40;99.90;;;;;;5091884;28;20216;-76
2022/11/22 10:48:59;;;;;;;13.67;12.70;;;8.40;99.90;;;;;;5091712;28;20188;-76
2022/11/22 10:52:02;;;;;;;7.63;7.03;;;8.60;99.90;;;;;;5090975;28;20191;-76
2022/11/22 10:54:57;;;;;;;10.47;8.60;;;8.80;99.90;;;;;;5060012;28;20190;-76
2022/11/22 10:57:37;;;;;;;11.73;9.70;;;8.90;99.90;;;;;;5080302;28;20216;-76
2022/11/22 11:00:23;;;;;;;9.40;7.03;;;9.10;99.90;;;;;;5091151;28;20191;-76
2022/11/22 11:02:55;;;;;;;11.07;9.47;;;9.20;99.90;;;;;;5092466;28;20169;-75
2022/11/22 11:05:48;;;;;;;12.83;11.83;;;9.30;99.90;;;;;;5092030;28;20299;-76
2022/11/22 11:08:31;;;;;;;9.27;8.33;;;9.40;99.90;;;;;;5082207;28;20192;-75
2022/11/22 11:10:58;;;;;;;12.93;12.00;;;9.50;99.90;;;;;;5097689;28;20177;-75
2022/11/22 11:13:32;;;;;;;21.97;20.50;;;9.50;99.90;;;;;;5105877;28;20181;-75
2022/11/22 11:16:02;;;;;;;13.23;12.53;;;9.50;99.90;;;;;;5087923;28;20224;-76
2022/11/22 11:18:34;;;;;;;10.70;9.57;;;9.50;99.90;;;;;;5073534;28;20188;-76
2022/11/22 11:21:00;;;;;;;7.33;6.30;;;9.40;99.90;;;;;;5073425;28;20225;-76
2022/11/22 11:23:25;;;;;;;7.03;5.80;;;9.50;99.90;;;;;;5090764;28;20553;-76
2022/11/22 11:25:51;;;;;;;9.60;6.60;;;9.60;99.90;;;;;;5091479;28;20200;-76
2022/11/22 11:28:29;;;;;;;7.27;6.20;;;9.60;99.90;;;;;;5090059;28;20306;-76
2022/11/22 11:31:06;;;;;;;7.40;6.63;;;9.70;99.90;;;;;;5089370;28;20177;-76
2022/11/22 11:33:36;;;;;;;8.50;7.23;;;9.70;99.90;;;;;;5091953;28;20172;-76
2022/11/22 11:36:05;;;;;;;9.00;8.30;;;9.90;99.90;;;;;;5089955;28;20200;-74
2022/11/22 11:38:34;;;;;;;7.53;6.93;;;9.90;99.90;;;;;;5089400;28;20618;-76
2022/11/22 11:41:21;;;;;;;6.67;6.10;;;9.70;99.90;;;;;;5091193;28;20181;-76
2022/11/22 11:43:47;;;;;;;6.03;5.50;;;9.60;99.90;;;;;;5089690;28;20200;-77
2022/11/22 11:46:19;;;;;;;8.93;6.17;;;9.70;99.90;;;;;;5088902;28;20280;-76
2022/11/22 11:48:46;;;;;;;4.83;4.43;;;9.70;99.90;;;;;;5084133;28;20245;-79
2022/11/22 11:51:37;;;;;;;5.43;5.03;;;9.60;99.90;;;;;;5100447;28;20263;-77
2022/11/22 11:54:10;;;;;;;4.97;4.60;;;9.70;99.90;;;;;;5099257;28;20244;-78
2022/11/22 11:56:49;;;;;;;6.43;4.90;;;9.70;99.90;;;;;;5119933;22;20216;-72
2022/11/22 11:59:35;;;;;;;7.00;4.50;;;9.70;99.90;;;;;;5051579;28;20600;-74
2022/11/22 12:02:18;;;;;;;7.17;4.30;;;9.70;99.90;;;;;;5069279;28;20192;-74
2022/11/22 12:04:53;;;;;;;6.97;5.10;;;9.80;99.90;;;;;;5070296;28;20242;-76
2022/11/22 12:07:36;;;;;;;5.57;5.17;;;10.00;99.90;;;;;;5053278;28;20217;-76
2022/11/22 12:10:28;;;;;;;5.10;4.70;;;10.20;99.90;;;;;;5070621;28;20207;-74
2022/11/22 12:13:01;;;;;;;6.07;4.60;;;10.30;99.90;;;;;;5070697;28;20229;-74
2022/11/22 12:15:57;;;;;;;6.40;4.80;;;10.20;99.90;;;;;;5052387;28;20186;-74
2022/11/22 12:18:37;;;;;;;10.63;4.43;;;9.90;99.90;;;;;;5052913;28;20689;-75
2022/11/22 12:21:11;;;;;;;5.37;4.87;;;9.60;99.90;;;;;;5052565;28;20216;-75
2022/11/22 12:23:43;;;;;;;5.37;4.87;;;9.70;99.90;;;;;;5053360;28;20644;-74
2022/11/22 12:26:09;;;;;;;5.20;4.40;;;9.80;99.90;;;;;;5071236;28;20213;-75
2022/11/22 12:28:37;;;;;;;5.97;5.03;;;10.00;99.90;;;;;;5070255;28;20200;-74
2022/11/22 12:31:16;;;;;;;6.13;4.87;;;10.00;99.90;;;;;;5052327;28;20641;-74
2022/11/22 12:33:46;;;;;;;5.10;4.00;;;10.10;99.90;;;;;;5070874;28;20678;-74
2022/11/22 12:36:35;;;;;;;4.63;3.93;;;10.10;99.90;;;;;;5070565;28;20190;-74
2022/11/22 12:39:03;;;;;;;6.30;4.70;;;10.20;99.90;;;;;;5059680;28;20194;-73
2022/11/22 12:41:31;;;;;;;8.50;6.63;;;10.20;99.90;;;;;;5052779;28;20182;-76
2022/11/22 12:44:03;;;;;;;9.00;6.67;;;10.40;99.90;;;;;;5072130;28;20188;-75
2022/11/22 12:46:34;;;;;;;7.93;6.40;;;10.80;99.90;;;;;;5074876;28;20213;-76
2022/11/22 12:49:14;;;;;;;11.83;10.83;;;11.00;99.90;;;;;;5073605;28;20552;-76
2022/11/22 12:51:46;;;;;;;10.87;9.63;;;11.00;99.90;;;;;;5056216;28;20193;-76
2022/11/22 12:54:37;;;;;;;9.13;7.60;;;11.10;99.90;;;;;;5073742;28;20177;-75
2022/11/22 12:57:33;;;;;;;8.53;6.10;;;11.00;99.90;;;;;;5045070;28;20213;-75
2022/11/22 13:00:14;;;;;;;6.00;4.40;;;11.20;99.90;;;;;;5073819;28;20662;-71
2022/11/22 13:02:44;;;;;;;5.37;4.70;;;11.40;99.90;;;;;;5056248;28;20235;-71
2022/11/22 13:05:15;;;;;;;5.47;4.77;;;11.10;99.90;;;;;;5073968;28;20174;-71
2022/11/22 13:07:50;;;;;;;7.57;5.90;;;11.00;99.90;;;;;;5073505;28;20201;-71
2022/11/22 13:10:22;;;;;;;6.83;6.33;;;10.60;99.90;;;;;;5056068;28;20181;-71
2022/11/22 13:12:49;;;;;;;6.23;5.53;;;10.30;99.90;;;;;;5073807;28;20597;-70
2022/11/22 13:15:24;;;;;;;5.67;4.40;;;10.20;99.90;;;;;;5072842;28;20189;-71